Time;durP1;ratioP1;P1;durP2;ratioP2;P2;SDS_P1;SDS_P2;PMS_P1;PMS_P2;Temp;Humidity;BMP_temperature;BMP_pressure;BME280_temperature;BME280_humidity;BME280_pressure;Samples;Min_cycle;Max_cycle;Signal;HPM_P1;HPM_P2
2022/05/01 00:00:31;;;;;;;24.58;14.98;;;;;;;;;;4984522;28;20597;-71
2022/05/01 00:02:57;;;;;;;20.70;15.93;;;;;;;;;;4983208;28;20081;-73
2022/05/01 00:05:23;;;;;;;21.40;16.58;;;;;;;;;;4984794;28;20035;-72
2022/05/01 00:07:48;;;;;;;20.05;16.23;;;;;;;;;;4984515;28;20502;-72
2022/05/01 00:10:14;;;;;;;19.33;14.93;;;;;;;;;;4984681;28;20081;-71
2022/05/01 00:12:39;;;;;;;20.73;15.65;;;;;;;;;;4983202;28;20046;-71
2022/05/01 00:15:06;;;;;;;22.42;14.93;;;;;;;;;;4984646;28;20042;-73
2022/05/01 00:17:31;;;;;;;22.27;15.75;;;;;;;;;;4984419;28;20038;-71
2022/05/01 00:19:57;;;;;;;21.60;15.93;;;;;;;;;;4984452;28;20042;-72
2022/05/01 00:22:23;;;;;;;21.63;16.33;;;;;;;;;;4983899;28;20034;-72
2022/05/01 00:24:48;;;;;;;18.42;15.15;;;;;;;;;;4983582;28;20038;-72
2022/05/01 00:27:14;;;;;;;19.92;14.93;;;;;;;;;;4984651;28;20023;-73
2022/05/01 00:29:39;;;;;;;18.60;14.98;;;;;;;;;;4984443;28;20550;-72
2022/05/01 00:32:05;;;;;;;19.73;15.00;;;;;;;;;;4983985;28;20491;-74
2022/05/01 00:37:15;;;;;;;20.17;15.82;;;;;;;;;;4984040;28;20039;-73
2022/05/01 00:39:41;;;;;;;19.70;14.68;;;;;;;;;;4983753;28;20030;-71
2022/05/01 00:42:06;;;;;;;18.52;13.93;;;;;;;;;;4984105;28;20888;-72
2022/05/01 00:44:32;;;;;;;19.33;14.68;;;;;;;;;;4983637;28;20038;-72
2022/05/01 00:46:59;;;;;;;23.40;16.92;;;;;;;;;;4983080;28;20065;-73
2022/05/01 00:49:26;;;;;;;21.48;15.65;;;;;;;;;;4983467;28;20042;-71
2022/05/01 00:51:57;;;;;;;21.48;16.10;;;;;;;;;;4983703;28;20166;-71
2022/05/01 00:54:24;;;;;;;20.75;15.50;;;;;;;;;;4983148;28;20038;-72
2022/05/01 00:56:53;;;;;;;22.67;17.10;;;;;;;;;;4982886;28;20038;-72
2022/05/01 00:59:21;;;;;;;23.92;16.98;;;;;;;;;;4983370;28;20207;-73
2022/05/01 01:01:48;;;;;;;23.35;16.08;;;;;;;;;;4983804;28;20034;-72
2022/05/01 01:04:14;;;;;;;20.80;15.48;;;;;;;;;;4982632;28;20046;-73
2022/05/01 01:06:41;;;;;;;22.67;15.55;;;;;;;;;;4983245;28;20034;-72
2022/05/01 01:09:07;;;;;;;19.25;13.88;;;;;;;;;;4982613;28;20041;-73
2022/05/01 01:11:33;;;;;;;20.77;14.43;;;;;;;;;;4982967;28;20069;-72
2022/05/01 01:13:59;;;;;;;17.00;13.52;;;;;;;;;;4983026;28;20170;-73
2022/05/01 01:16:25;;;;;;;16.25;12.55;;;;;;;;;;4983249;28;20038;-73
2022/05/01 01:18:51;;;;;;;14.55;11.75;;;;;;;;;;4982518;28;20050;-71
2022/05/01 01:21:18;;;;;;;17.42;11.70;;;;;;;;;;4983217;28;20046;-72
2022/05/01 01:23:45;;;;;;;14.73;11.32;;;;;;;;;;4982614;28;20076;-71
2022/05/01 01:26:12;;;;;;;14.27;10.85;;;;;;;;;;4983086;28;20534;-73
2022/05/01 01:28:39;;;;;;;15.18;11.55;;;;;;;;;;4983009;28;20491;-71
2022/05/01 01:33:51;;;;;;;17.23;13.02;;;;;;;;;;4982202;28;20081;-73
2022/05/01 01:36:21;;;;;;;18.98;13.40;;;;;;;;;;4982944;28;20041;-70
2022/05/01 01:38:47;;;;;;;19.02;14.60;;;;;;;;;;4983162;28;20050;-71
2022/05/01 01:41:14;;;;;;;20.90;13.70;;;;;;;;;;4976462;28;20042;-71
2022/05/01 01:43:42;;;;;;;17.85;12.63;;;;;;;;;;4981862;28;20042;-70
2022/05/01 01:46:07;;;;;;;18.92;12.68;;;;;;;;;;4982585;28;20038;-70
2022/05/01 01:48:33;;;;;;;15.70;12.00;;;;;;;;;;4982636;28;20042;-73
2022/05/01 01:51:01;;;;;;;14.88;11.57;;;;;;;;;;4982849;28;20038;-71
2022/05/01 01:53:29;;;;;;;14.98;10.98;;;;;;;;;;4981281;28;20041;-71
2022/05/01 01:55:56;;;;;;;15.45;11.65;;;;;;;;;;4982494;28;20034;-71
2022/05/01 01:58:21;;;;;;;13.85;10.93;;;;;;;;;;4982542;28;20053;-71
2022/05/01 02:00:47;;;;;;;16.52;12.13;;;;;;;;;;4981875;28;20042;-72
2022/05/01 02:03:12;;;;;;;18.48;12.73;;;;;;;;;;4981134;28;20042;-73
2022/05/01 02:05:38;;;;;;;17.73;13.02;;;;;;;;;;4982157;28;20049;-72
2022/05/01 02:08:07;;;;;;;18.88;13.10;;;;;;;;;;4982289;28;20026;-72
2022/05/01 02:10:33;;;;;;;16.92;12.43;;;;;;;;;;4982256;28;20041;-72
2022/05/01 02:13:00;;;;;;;18.38;13.00;;;;;;;;;;4981754;28;20042;-72
2022/05/01 02:15:30;;;;;;;19.17;12.75;;;;;;;;;;4980641;28;20120;-74
2022/05/01 02:17:56;;;;;;;16.20;12.98;;;;;;;;;;4981144;28;20388;-72
2022/05/01 02:20:21;;;;;;;16.27;11.95;;;;;;;;;;4981985;28;20035;-73
2022/05/01 02:22:47;;;;;;;20.13;13.43;;;;;;;;;;4981470;28;20065;-72
2022/05/01 02:25:13;;;;;;;17.08;11.73;;;;;;;;;;4981246;28;20495;-72
2022/05/01 02:27:38;;;;;;;17.52;13.18;;;;;;;;;;4982059;28;20030;-72
2022/05/01 02:30:08;;;;;;;20.88;13.35;;;;;;;;;;4981702;28;20045;-72
2022/05/01 02:32:40;;;;;;;22.20;12.57;;;;;;;;;;4981779;28;20049;-72
2022/05/01 02:35:06;;;;;;;;;;;;;;;;;;4982213;28;20264;-73
2022/05/01 02:37:32;;;;;;;18.23;12.57;;;;;;;;;;4982044;28;19975;-72
2022/05/01 02:39:58;;;;;;;21.02;13.65;;;;;;;;;;4981694;28;20533;-72
2022/05/01 02:42:23;;;;;;;19.95;13.63;;;;;;;;;;4981412;28;20038;-72
2022/05/01 02:44:48;;;;;;;20.17;13.75;;;;;;;;;;4981963;28;20038;-71
2022/05/01 02:47:14;;;;;;;24.05;14.63;;;;;;;;;;4980847;28;20463;-73
2022/05/01 02:49:40;;;;;;;20.08;14.23;;;;;;;;;;4981494;28;20046;-72
2022/05/01 02:52:07;;;;;;;18.02;13.38;;;;;;;;;;4981892;28;20097;-72
2022/05/01 02:54:33;;;;;;;21.13;14.68;;;;;;;;;;4980921;28;20048;-70
2022/05/01 02:56:58;;;;;;;18.73;13.60;;;;;;;;;;4981724;28;20954;-73
2022/05/01 02:59:24;;;;;;;20.00;14.93;;;;;;;;;;4980563;28;20554;-71
2022/05/01 03:01:49;;;;;;;19.52;13.90;;;;;;;;;;4981506;28;20487;-73
2022/05/01 03:04:14;;;;;;;19.77;13.57;;;;;;;;;;4981322;28;20070;-71
2022/05/01 03:06:40;;;;;;;20.73;15.18;;;;;;;;;;4981468;28;20279;-73
2022/05/01 03:09:08;;;;;;;19.30;14.05;;;;;;;;;;4981174;28;20042;-72
2022/05/01 03:11:35;;;;;;;22.05;15.05;;;;;;;;;;4981299;28;20089;-72
2022/05/01 03:14:01;;;;;;;21.00;15.05;;;;;;;;;;4980736;28;20490;-72
2022/05/01 03:16:26;;;;;;;16.83;12.95;;;;;;;;;;4981471;28;20034;-72
2022/05/01 03:24:19;;;;;;;17.67;13.82;;;;;;;;;;4980781;28;20171;-72
2022/05/01 03:26:47;;;;;;;17.90;13.32;;;;;;;;;;4981270;28;20475;-71
2022/05/01 03:29:16;;;;;;;20.42;14.18;;;;;;;;;;4966784;28;20133;-72
2022/05/01 03:31:41;;;;;;;18.90;13.40;;;;;;;;;;4984148;28;20116;-71
2022/05/01 03:34:07;;;;;;;19.63;13.80;;;;;;;;;;4984935;28;20037;-72
2022/05/01 03:36:33;;;;;;;17.25;13.30;;;;;;;;;;4984969;28;20038;-71
2022/05/01 03:38:59;;;;;;;18.92;13.55;;;;;;;;;;4967715;28;20046;-71
2022/05/01 03:41:26;;;;;;;17.15;13.02;;;;;;;;;;4963875;28;20039;-72
2022/05/01 03:43:52;;;;;;;21.02;14.45;;;;;;;;;;4984144;28;20045;-71
2022/05/01 03:46:20;;;;;;;19.98;14.30;;;;;;;;;;4985290;28;20022;-73
2022/05/01 03:48:46;;;;;;;19.17;13.90;;;;;;;;;;4982357;28;20062;-72
2022/05/01 03:51:12;;;;;;;20.80;14.82;;;;;;;;;;4984433;28;20117;-72
2022/05/01 03:53:38;;;;;;;19.67;13.93;;;;;;;;;;4983646;28;20473;-71
2022/05/01 03:56:05;;;;;;;19.05;13.77;;;;;;;;;;4984628;28;20034;-71
2022/05/01 03:58:30;;;;;;;18.77;13.57;;;;;;;;;;4984743;28;20030;-71
2022/05/01 04:00:57;;;;;;;18.73;13.77;;;;;;;;;;4984484;28;20398;-72
2022/05/01 04:03:22;;;;;;;18.10;13.77;;;;;;;;;;4983389;28;20038;-72
2022/05/01 04:05:48;;;;;;;18.75;14.05;;;;;;;;;;4984579;28;20393;-70
2022/05/01 04:08:13;;;;;;;18.15;13.38;;;;;;;;;;4984760;28;20046;-71
2022/05/01 04:10:43;;;;;;;18.40;13.20;;;;;;;;;;4984558;28;20049;-72
2022/05/01 04:13:10;;;;;;;19.65;14.30;;;;;;;;;;4984338;28;20181;-72
2022/05/01 04:15:38;;;;;;;21.27;14.50;;;;;;;;;;4983610;28;20525;-71
2022/05/01 04:18:05;;;;;;;17.80;13.40;;;;;;;;;;4984411;28;20050;-71
2022/05/01 04:20:32;;;;;;;18.83;13.85;;;;;;;;;;4984074;28;20042;-71
2022/05/01 04:22:58;;;;;;;17.85;13.45;;;;;;;;;;4984042;28;20042;-71
2022/05/01 04:25:26;;;;;;;19.83;14.32;;;;;;;;;;4983315;28;20042;-71
2022/05/01 04:28:04;;;;;;;18.45;13.65;;;;;;;;;;4984544;28;20042;-70
2022/05/01 04:30:33;;;;;;;24.83;15.90;;;;;;;;;;4984073;28;20027;-71
2022/05/01 04:33:07;;;;;;;22.70;15.70;;;;;;;;;;4983713;28;20057;-71
2022/05/01 04:35:37;;;;;;;25.95;16.40;;;;;;;;;;4984228;28;20121;-71
2022/05/01 04:38:04;;;;;;;23.77;17.08;;;;;;;;;;4983330;28;20070;-71
2022/05/01 04:40:36;;;;;;;25.48;16.88;;;;;;;;;;4983030;28;20089;-71
2022/05/01 04:43:01;;;;;;;28.00;18.30;;;;;;;;;;4983771;28;20054;-70
2022/05/01 04:45:29;;;;;;;28.17;18.92;;;;;;;;;;4983496;28;20030;-70
2022/05/01 04:47:54;;;;;;;28.70;19.98;;;;;;;;;;4983224;28;20041;-71
2022/05/01 04:50:19;;;;;;;28.95;19.55;;;;;;;;;;4983806;28;20050;-71
2022/05/01 04:52:45;;;;;;;31.58;20.70;;;;;;;;;;4983317;28;20045;-71
2022/05/01 04:55:10;;;;;;;32.47;21.50;;;;;;;;;;4966171;28;20096;-71
2022/05/01 04:57:38;;;;;;;34.55;22.35;;;;;;;;;;4983503;28;20608;-71
2022/05/01 05:00:05;;;;;;;34.65;21.58;;;;;;;;;;4982787;28;20030;-71
2022/05/01 05:02:38;;;;;;;33.72;21.45;;;;;;;;;;4983212;28;20049;-71
2022/05/01 05:05:06;;;;;;;33.05;21.80;;;;;;;;;;4983421;28;20039;-71
2022/05/01 05:07:32;;;;;;;34.75;22.40;;;;;;;;;;4983494;28;20030;-71
2022/05/01 05:09:58;;;;;;;36.20;22.98;;;;;;;;;;4982560;28;20034;-70
2022/05/01 05:12:24;;;;;;;37.97;24.30;;;;;;;;;;4983326;28;20042;-72
2022/05/01 05:14:52;;;;;;;38.90;24.30;;;;;;;;;;4965072;28;20042;-71
2022/05/01 05:17:22;;;;;;;36.78;23.35;;;;;;;;;;4982999;28;20411;-71
2022/05/01 05:19:48;;;;;;;39.75;24.13;;;;;;;;;;4982870;28;20049;-71
2022/05/01 05:22:14;;;;;;;37.13;22.50;;;;;;;;;;4982534;28;20173;-71
2022/05/01 05:24:40;;;;;;;38.38;22.48;;;;;;;;;;4982428;28;20046;-71
2022/05/01 05:27:06;;;;;;;39.67;22.85;;;;;;;;;;4983219;28;20034;-71
2022/05/01 05:29:31;;;;;;;33.70;22.67;;;;;;;;;;4982646;28;20050;-71
2022/05/01 05:31:57;;;;;;;32.13;21.52;;;;;;;;;;4982335;28;20038;-71
2022/05/01 05:34:22;;;;;;;34.17;22.77;;;;;;;;;;4982037;28;20034;-71
2022/05/01 05:36:48;;;;;;;37.33;22.33;;;;;;;;;;4983255;28;20535;-70
2022/05/01 05:39:13;;;;;;;32.85;21.20;;;;;;;;;;4983059;28;20447;-71
2022/05/01 05:41:39;;;;;;;33.47;21.65;;;;;;;;;;4982806;28;20049;-72
2022/05/01 05:44:05;;;;;;;32.70;21.63;;;;;;;;;;4982121;28;20045;-71
2022/05/01 05:46:30;;;;;;;31.38;20.63;;;;;;;;;;4982765;28;20943;-71
2022/05/01 05:48:57;;;;;;;32.97;22.30;;;;;;;;;;4983306;28;20034;-71
2022/05/01 05:51:22;;;;;;;37.40;22.48;;;;;;;;;;4981770;28;20053;-71
2022/05/01 05:57:34;;;;;;;32.60;21.85;;;;;;;;;;4978781;28;20108;-70
2022/05/01 06:00:00;;;;;;;32.30;21.48;;;;;;;;;;4978244;28;20491;-71
2022/05/01 06:02:26;;;;;;;30.90;20.73;;;;;;;;;;4981248;28;20068;-70
2022/05/01 06:04:51;;;;;;;32.83;21.05;;;;;;;;;;4979667;28;20498;-71
2022/05/01 06:07:17;;;;;;;29.10;20.17;;;;;;;;;;4981815;28;20491;-71
2022/05/01 06:09:42;;;;;;;32.40;20.40;;;;;;;;;;4981989;28;20041;-71
2022/05/01 06:12:09;;;;;;;31.58;20.92;;;;;;;;;;4982344;28;20512;-71
2022/05/01 06:14:35;;;;;;;30.33;20.55;;;;;;;;;;4981687;28;20042;-71
2022/05/01 06:17:01;;;;;;;33.10;21.25;;;;;;;;;;4980519;28;20046;-71
2022/05/01 06:19:26;;;;;;;31.27;21.05;;;;;;;;;;4977462;28;20026;-70
2022/05/01 06:21:51;;;;;;;28.23;18.98;;;;;;;;;;4979136;28;20618;-71
2022/05/01 06:24:17;;;;;;;29.00;20.30;;;;;;;;;;4978446;28;20050;-72
2022/05/01 06:26:42;;;;;;;26.98;19.45;;;;;;;;;;4977694;28;20038;-70
2022/05/01 06:29:08;;;;;;;30.35;20.63;;;;;;;;;;4979639;28;20053;-72
2022/05/01 06:31:35;;;;;;;29.15;19.50;;;;;;;;;;4979597;28;20041;-70
2022/05/01 06:34:00;;;;;;;29.55;19.77;;;;;;;;;;4979478;28;20157;-71
2022/05/01 06:36:26;;;;;;;32.15;21.15;;;;;;;;;;4980088;28;20038;-72
2022/05/01 06:38:51;;;;;;;30.20;20.25;;;;;;;;;;4979152;28;20108;-72
2022/05/01 06:41:17;;;;;;;27.80;19.45;;;;;;;;;;4980010;28;20070;-72
2022/05/01 06:43:42;;;;;;;31.38;19.73;;;;;;;;;;4979614;28;20038;-73
2022/05/01 06:46:08;;;;;;;31.23;19.52;;;;;;;;;;4980666;28;20048;-73
2022/05/01 06:48:34;;;;;;;28.02;19.25;;;;;;;;;;4980763;28;20049;-72
2022/05/01 06:50:59;;;;;;;32.88;21.17;;;;;;;;;;4981108;28;20057;-72
2022/05/01 06:53:25;;;;;;;32.88;21.55;;;;;;;;;;4981040;28;20767;-71
2022/05/01 06:55:50;;;;;;;29.98;20.35;;;;;;;;;;4981323;28;20120;-72
2022/05/01 06:58:17;;;;;;;30.63;19.70;;;;;;;;;;4981101;28;20070;-72
2022/05/01 07:04:29;;;;;;;32.25;20.20;;;;;;;;;;4988180;28;20089;-72
2022/05/01 07:06:55;;;;;;;34.08;21.70;;;;;;;;;;4987980;28;20034;-72
2022/05/01 07:09:20;;;;;;;32.08;20.80;;;;;;;;;;4987764;28;20104;-72
2022/05/01 07:11:46;;;;;;;29.42;20.77;;;;;;;;;;4986769;28;20030;-71
2022/05/01 07:14:11;;;;;;;33.70;21.20;;;;;;;;;;4987311;28;20038;-73
2022/05/01 07:16:37;;;;;;;27.65;20.00;;;;;;;;;;4987502;28;20049;-72
2022/05/01 07:19:02;;;;;;;30.92;20.75;;;;;;;;;;4987892;28;20042;-72
2022/05/01 07:21:28;;;;;;;31.38;20.48;;;;;;;;;;4987067;28;20772;-73
2022/05/01 07:23:53;;;;;;;30.02;20.52;;;;;;;;;;4987383;28;20045;-72
2022/05/01 07:26:18;;;;;;;31.63;20.90;;;;;;;;;;4988040;28;20046;-72
2022/05/01 07:28:44;;;;;;;30.08;19.80;;;;;;;;;;4988015;28;20077;-73
2022/05/01 07:31:09;;;;;;;30.60;20.25;;;;;;;;;;4988000;28;20034;-71
2022/05/01 07:33:35;;;;;;;30.10;20.75;;;;;;;;;;4985435;28;20108;-72
2022/05/01 07:36:01;;;;;;;31.40;20.52;;;;;;;;;;4987317;28;20040;-72
2022/05/01 07:38:26;;;;;;;33.55;20.92;;;;;;;;;;4988183;28;20042;-72
2022/05/01 07:40:53;;;;;;;32.03;21.20;;;;;;;;;;4988171;28;20124;-72
2022/05/01 07:43:19;;;;;;;28.98;20.15;;;;;;;;;;4986252;28;20060;-72
2022/05/01 07:45:44;;;;;;;25.75;19.35;;;;;;;;;;4987690;28;20467;-72
2022/05/01 07:48:10;;;;;;;31.92;21.00;;;;;;;;;;4970107;28;20167;-72
2022/05/01 07:50:35;;;;;;;29.92;20.65;;;;;;;;;;4987370;28;20051;-71
2022/05/01 07:53:00;;;;;;;32.00;21.75;;;;;;;;;;4987501;28;20143;-71
2022/05/01 07:55:26;;;;;;;30.20;20.80;;;;;;;;;;4986992;28;20038;-72
2022/05/01 07:57:51;;;;;;;29.65;20.83;;;;;;;;;;4987855;28;20077;-72
2022/05/01 08:00:17;;;;;;;29.35;21.08;;;;;;;;;;4987530;28;20038;-72
2022/05/01 08:05:29;;;;;;;35.03;20.63;;;;;;;;;;4986068;28;20416;-71
2022/05/01 08:07:57;;;;;;;31.80;21.15;;;;;;;;;;4987040;28;20045;-72
2022/05/01 08:10:23;;;;;;;30.75;20.83;;;;;;;;;;4986966;28;20034;-72
2022/05/01 08:12:49;;;;;;;32.35;20.98;;;;;;;;;;4987012;28;20034;-71
2022/05/01 08:15:18;;;;;;;32.80;22.42;;;;;;;;;;4984261;28;20060;-72
2022/05/01 08:17:47;;;;;;;37.10;22.00;;;;;;;;;;4982774;28;20057;-71
2022/05/01 08:23:07;;;;;;;36.03;22.50;;;;;;;;;;4983099;28;20488;-73
2022/05/01 08:25:33;;;;;;;33.00;22.33;;;;;;;;;;4984390;28;20046;-73
2022/05/01 08:27:59;;;;;;;35.72;22.90;;;;;;;;;;4983127;28;20037;-73
2022/05/01 08:30:25;;;;;;;32.63;21.85;;;;;;;;;;4982983;28;20718;-72
2022/05/01 08:32:52;;;;;;;35.03;22.50;;;;;;;;;;4978482;28;20165;-69
2022/05/01 08:35:17;;;;;;;33.03;21.70;;;;;;;;;;4983223;28;20046;-69
2022/05/01 08:37:43;;;;;;;34.30;22.75;;;;;;;;;;4982957;28;20115;-70
2022/05/01 08:40:09;;;;;;;33.38;21.73;;;;;;;;;;4981999;28;20125;-72
2022/05/01 08:42:36;;;;;;;33.13;21.80;;;;;;;;;;4981816;28;20099;-70
2022/05/01 08:45:03;;;;;;;35.25;23.25;;;;;;;;;;4981785;28;20100;-71
2022/05/01 08:48:06;;;;;;;33.40;22.38;;;;;;;;;;4982833;28;20080;-71
2022/05/01 08:50:34;;;;;;;37.75;22.80;;;;;;;;;;4981681;28;20045;-71
2022/05/01 08:53:02;;;;;;;32.97;21.90;;;;;;;;;;4983256;28;20046;-70
2022/05/01 08:55:30;;;;;;;34.38;22.80;;;;;;;;;;4982133;28;20042;-70
2022/05/01 08:57:56;;;;;;;37.92;23.17;;;;;;;;;;4982844;28;20035;-70
2022/05/01 09:00:21;;;;;;;34.25;23.33;;;;;;;;;;4982669;28;20399;-71
2022/05/01 09:02:47;;;;;;;35.88;23.00;;;;;;;;;;4982504;28;20049;-71
2022/05/01 09:05:13;;;;;;;39.92;23.88;;;;;;;;;;4964313;28;20460;-70
2022/05/01 09:07:39;;;;;;;38.58;23.48;;;;;;;;;;4983117;28;20535;-70
2022/05/01 09:10:07;;;;;;;40.92;24.70;;;;;;;;;;4982614;28;20808;-71
2022/05/01 09:12:53;;;;;;;35.70;21.58;;;;;;;;;;4981234;28;20041;-70
2022/05/01 09:15:36;;;;;;;42.83;22.80;;;;;;;;;;4980936;28;20112;-71
2022/05/01 09:18:08;;;;;;;43.00;25.25;;;;;;;;;;4982162;28;20046;-70
2022/05/01 09:20:34;;;;;;;40.42;25.15;;;;;;;;;;4982450;28;20048;-71
2022/05/01 09:23:00;;;;;;;42.15;24.13;;;;;;;;;;4982231;28;20819;-70
2022/05/01 09:25:29;;;;;;;39.30;22.13;;;;;;;;;;4982449;28;20030;-70
2022/05/01 09:28:01;;;;;;;39.33;23.50;;;;;;;;;;4982572;28;20049;-71
2022/05/01 09:30:34;;;;;;;41.50;23.35;;;;;;;;;;4982917;28;20045;-70
2022/05/01 09:33:00;;;;;;;40.45;23.58;;;;;;;;;;4982869;28;20049;-70
2022/05/01 09:35:31;;;;;;;40.63;23.45;;;;;;;;;;4981634;28;20069;-69
2022/05/01 09:38:15;;;;;;;43.17;25.00;;;;;;;;;;4982745;28;20045;-69
2022/05/01 09:40:43;;;;;;;42.22;22.95;;;;;;;;;;4981860;28;20134;-71
2022/05/01 09:43:08;;;;;;;41.80;23.60;;;;;;;;;;4982154;28;20038;-71
2022/05/01 09:45:34;;;;;;;32.08;19.33;;;;;;;;;;4981266;28;20084;-70
2022/05/01 09:48:00;;;;;;;35.42;22.55;;;;;;;;;;4983236;28;20041;-71
2022/05/01 09:50:47;;;;;;;33.80;20.05;;;;;;;;;;4982450;28;20049;-70
2022/05/01 09:53:13;;;;;;;36.00;21.25;;;;;;;;;;4981875;28;20906;-71
2022/05/01 09:55:38;;;;;;;33.03;20.05;;;;;;;;;;4981649;28;20042;-70
2022/05/01 09:58:14;;;;;;;32.85;20.17;;;;;;;;;;4981993;28;20035;-70
2022/05/01 10:00:45;;;;;;;31.50;19.77;;;;;;;;;;4982215;28;20057;-70
2022/05/01 10:03:25;;;;;;;32.72;20.85;;;;;;;;;;4981808;28;20528;-69
2022/05/01 10:05:52;;;;;;;31.00;19.85;;;;;;;;;;4981904;28;20464;-70
2022/05/01 10:08:18;;;;;;;31.95;19.42;;;;;;;;;;4981051;28;20402;-70
2022/05/01 10:10:46;;;;;;;27.58;18.08;;;;;;;;;;4982179;28;20034;-69
2022/05/01 10:13:12;;;;;;;28.98;16.48;;;;;;;;;;4981536;28;20034;-70
2022/05/01 10:15:37;;;;;;;30.58;16.88;;;;;;;;;;4981688;28;20026;-71
2022/05/01 10:18:04;;;;;;;23.73;14.52;;;;;;;;;;4981069;28;20050;-71
2022/05/01 10:20:30;;;;;;;32.63;17.65;;;;;;;;;;4981611;28;20046;-71
2022/05/01 10:22:56;;;;;;;23.77;16.25;;;;;;;;;;4982062;28;20042;-71
2022/05/01 10:25:22;;;;;;;23.85;14.52;;;;;;;;;;4981722;28;20042;-71
2022/05/01 10:28:08;;;;;;;25.00;15.60;;;;;;;;;;4981939;28;20042;-71
2022/05/01 10:33:57;;;;;;;24.15;15.00;;;;;;;;;;4980112;28;20030;-71
2022/05/01 10:36:47;;;;;;;23.83;15.93;;;;;;;;;;4980735;28;20499;-71
2022/05/01 10:39:15;;;;;;;23.15;15.30;;;;;;;;;;4980087;28;20042;-71
2022/05/01 10:41:45;;;;;;;22.05;14.80;;;;;;;;;;4979797;28;20558;-71
2022/05/01 10:44:36;;;;;;;25.65;15.00;;;;;;;;;;4979910;28;20038;-71
2022/05/01 10:47:12;;;;;;;25.05;16.23;;;;;;;;;;4979797;28;20034;-71
2022/05/01 10:49:45;;;;;;;24.45;15.52;;;;;;;;;;4981766;28;20042;-71
2022/05/01 10:52:19;;;;;;;21.98;13.57;;;;;;;;;;4980479;28;20130;-71
2022/05/01 10:55:05;;;;;;;24.23;15.30;;;;;;;;;;4981063;28;20060;-70
2022/05/01 10:57:31;;;;;;;24.50;15.80;;;;;;;;;;4981294;28;20133;-71
2022/05/01 11:00:06;;;;;;;22.02;14.18;;;;;;;;;;4980757;28;20034;-70
2022/05/01 11:02:35;;;;;;;24.98;15.65;;;;;;;;;;4979439;28;20133;-72
2022/05/01 11:05:01;;;;;;;22.10;15.63;;;;;;;;;;4972681;28;20030;-71
2022/05/01 11:07:29;;;;;;;19.88;13.95;;;;;;;;;;4978244;28;20026;-70
2022/05/01 11:09:57;;;;;;;22.02;14.70;;;;;;;;;;4978906;28;20101;-70
2022/05/01 11:12:24;;;;;;;22.23;12.95;;;;;;;;;;4977197;28;20046;-71
2022/05/01 11:15:02;;;;;;;23.48;15.70;;;;;;;;;;4977853;28;20034;-71
2022/05/01 11:17:36;;;;;;;23.38;14.35;;;;;;;;;;4977812;28;20899;-71
2022/05/01 11:20:22;;;;;;;21.55;14.95;;;;;;;;;;4977589;28;20042;-71
2022/05/01 11:22:48;;;;;;;18.35;13.60;;;;;;;;;;4977432;28;20057;-71
2022/05/01 11:25:39;;;;;;;18.25;13.15;;;;;;;;;;4976502;28;20034;-71
2022/05/01 11:28:05;;;;;;;19.60;13.63;;;;;;;;;;4978061;28;20039;-71
2022/05/01 11:30:31;;;;;;;20.10;13.20;;;;;;;;;;4977931;28;20041;-71
2022/05/01 11:33:02;;;;;;;18.80;13.20;;;;;;;;;;4979277;28;20499;-71
2022/05/01 11:36:00;;;;;;;21.17;13.48;;;;;;;;;;4977010;28;20042;-71
2022/05/01 11:38:38;;;;;;;19.30;12.50;;;;;;;;;;4977754;28;20555;-71
2022/05/01 11:41:04;;;;;;;19.90;12.90;;;;;;;;;;4977167;28;20046;-71
2022/05/01 11:43:31;;;;;;;18.05;12.70;;;;;;;;;;4976118;28;20069;-71
2022/05/01 11:45:59;;;;;;;22.48;14.13;;;;;;;;;;4977461;28;20062;-71
2022/05/01 11:48:25;;;;;;;17.95;12.90;;;;;;;;;;4976135;28;20038;-71
2022/05/01 11:50:52;;;;;;;19.25;13.18;;;;;;;;;;4980219;28;20100;-71
2022/05/01 11:53:25;;;;;;;20.08;14.05;;;;;;;;;;4982392;28;20117;-71
2022/05/01 12:04:27;;;;;;;20.83;12.70;;;;;;;;;;4981469;28;20038;-70
2022/05/01 12:07:08;;;;;;;14.88;11.68;;;;;;;;;;4982381;28;20594;-70
2022/05/01 12:09:37;;;;;;;17.20;11.95;;;;;;;;;;4981962;28;20034;-70
2022/05/01 12:12:03;;;;;;;15.77;11.90;;;;;;;;;;4981205;28;20073;-69
2022/05/01 12:14:29;;;;;;;18.67;13.07;;;;;;;;;;4981055;28;20130;-69
2022/05/01 12:16:54;;;;;;;21.98;12.73;;;;;;;;;;4981430;28;20034;-69
2022/05/01 12:19:20;;;;;;;19.88;13.65;;;;;;;;;;4980270;28;20085;-69
2022/05/01 12:21:46;;;;;;;21.85;14.02;;;;;;;;;;4979325;28;20185;-69
2022/05/01 12:24:14;;;;;;;17.75;12.27;;;;;;;;;;4979926;28;20132;-69
2022/05/01 12:26:49;;;;;;;19.98;14.38;;;;;;;;;;4980534;28;20030;-69
2022/05/01 12:29:16;;;;;;;20.02;13.40;;;;;;;;;;4981191;28;20506;-69
2022/05/01 12:32:02;;;;;;;22.85;13.90;;;;;;;;;;4981262;28;20038;-69
2022/05/01 12:34:33;;;;;;;17.45;13.27;;;;;;;;;;4979437;28;20112;-69
2022/05/01 12:37:01;;;;;;;20.42;13.30;;;;;;;;;;4981170;28;20049;-69
2022/05/01 12:39:28;;;;;;;17.63;13.02;;;;;;;;;;4981680;28;20043;-69
2022/05/01 12:45:20;;;;;;;19.48;14.02;;;;;;;;;;4980559;28;20104;-69
2022/05/01 12:47:50;;;;;;;21.60;14.73;;;;;;;;;;4981737;28;20387;-69
2022/05/01 12:50:18;;;;;;;22.85;15.35;;;;;;;;;;4979249;28;20038;-69
2022/05/01 12:52:46;;;;;;;21.10;14.57;;;;;;;;;;4980841;28;20476;-69
2022/05/01 12:59:00;;;;;;;28.95;16.52;;;;;;;;;;4981195;28;20864;-70
2022/05/01 13:01:27;;;;;;;23.08;15.77;;;;;;;;;;4979991;28;20042;-70
2022/05/01 13:03:54;;;;;;;24.35;15.82;;;;;;;;;;4980585;28;20128;-70
2022/05/01 13:06:22;;;;;;;23.40;14.70;;;;;;;;;;4979751;28;20101;-71
2022/05/01 13:09:04;;;;;;;24.52;14.80;;;;;;;;;;4981259;28;20046;-71
2022/05/01 13:11:33;;;;;;;21.05;15.18;;;;;;;;;;4980471;28;20080;-70
2022/05/01 13:14:08;;;;;;;20.80;14.73;;;;;;;;;;4981244;28;20122;-70
2022/05/01 13:16:33;;;;;;;19.98;13.88;;;;;;;;;;4981723;28;20101;-70
2022/05/01 13:19:06;;;;;;;19.33;14.25;;;;;;;;;;4982433;28;20070;-70
2022/05/01 13:21:35;;;;;;;21.40;14.38;;;;;;;;;;4982390;28;20027;-70
2022/05/01 13:24:06;;;;;;;21.63;14.40;;;;;;;;;;4981741;28;20510;-70
2022/05/01 13:26:31;;;;;;;25.45;15.48;;;;;;;;;;4981881;28;20030;-70
2022/05/01 13:28:57;;;;;;;21.30;14.65;;;;;;;;;;4981505;28;20030;-70
2022/05/01 13:31:23;;;;;;;22.38;15.63;;;;;;;;;;4982005;28;20124;-70
2022/05/01 13:33:48;;;;;;;22.98;14.88;;;;;;;;;;4981471;28;20138;-70
2022/05/01 13:36:14;;;;;;;22.25;15.30;;;;;;;;;;4982005;28;20160;-70
2022/05/01 13:38:40;;;;;;;19.92;14.02;;;;;;;;;;4980255;28;20037;-70
2022/05/01 13:46:34;;;;;;;24.33;15.20;;;;;;;;;;4981828;28;20113;-70
2022/05/01 13:49:01;;;;;;;21.63;15.15;;;;;;;;;;4981434;28;20251;-70
2022/05/01 13:51:28;;;;;;;20.10;14.93;;;;;;;;;;4978989;28;20038;-70
2022/05/01 13:53:53;;;;;;;22.02;14.85;;;;;;;;;;4979594;28;20042;-70
2022/05/01 13:56:18;;;;;;;25.15;17.33;;;;;;;;;;4981112;28;20427;-70
2022/05/01 13:58:44;;;;;;;22.52;15.52;;;;;;;;;;4981259;28;20073;-70
2022/05/01 14:01:11;;;;;;;21.02;15.57;;;;;;;;;;4980286;28;20125;-70
2022/05/01 14:03:37;;;;;;;26.80;17.33;;;;;;;;;;4980598;28;20046;-70
2022/05/01 14:06:03;;;;;;;26.60;16.35;;;;;;;;;;4980814;28;20534;-70
2022/05/01 14:08:29;;;;;;;20.02;15.45;;;;;;;;;;4978610;28;20038;-70
2022/05/01 14:10:55;;;;;;;20.63;14.93;;;;;;;;;;4980792;28;20034;-70
2022/05/01 14:13:20;;;;;;;23.27;15.30;;;;;;;;;;4979841;28;20068;-70
2022/05/01 14:15:46;;;;;;;21.80;14.77;;;;;;;;;;4980718;28;20034;-70
2022/05/01 14:18:14;;;;;;;19.55;13.90;;;;;;;;;;4981897;28;20050;-70
2022/05/01 14:20:39;;;;;;;18.98;13.50;;;;;;;;;;4981437;28;20033;-71
2022/05/01 14:23:06;;;;;;;18.35;14.90;;;;;;;;;;4981403;28;20419;-70
2022/05/01 14:25:32;;;;;;;17.52;13.52;;;;;;;;;;4981212;28;20038;-71
2022/05/01 14:27:57;;;;;;;19.08;13.35;;;;;;;;;;4981836;28;20487;-70
2022/05/01 14:30:23;;;;;;;17.73;13.55;;;;;;;;;;4980849;28;20045;-70
2022/05/01 14:32:52;;;;;;;17.83;13.60;;;;;;;;;;4980781;28;20377;-70
2022/05/01 14:35:26;;;;;;;19.63;14.18;;;;;;;;;;4979662;28;20111;-69
2022/05/01 14:38:07;;;;;;;17.80;12.43;;;;;;;;;;4980776;28;20053;-70
2022/05/01 14:40:37;;;;;;;22.77;13.60;;;;;;;;;;4981721;28;20041;-69
2022/05/01 14:43:14;;;;;;;18.83;13.15;;;;;;;;;;4981203;28;20038;-69
2022/05/01 14:45:48;;;;;;;16.15;12.40;;;;;;;;;;4980172;28;20030;-69
2022/05/01 14:48:28;;;;;;;18.83;14.05;;;;;;;;;;4981746;28;20034;-70
2022/05/01 14:50:56;;;;;;;17.10;13.32;;;;;;;;;;4981560;28;20723;-70
2022/05/01 14:53:22;;;;;;;19.33;13.02;;;;;;;;;;4981392;28;20061;-70
2022/05/01 14:55:49;;;;;;;17.02;12.88;;;;;;;;;;4979789;28;20523;-70
2022/05/01 15:06:43;;;;;;;16.42;12.65;;;;;;;;;;4980533;28;20069;-72
2022/05/01 15:09:11;;;;;;;20.02;12.55;;;;;;;;;;4975999;28;20077;-71
2022/05/01 15:11:38;;;;;;;17.20;13.15;;;;;;;;;;4959928;28;20038;-71
2022/05/01 15:14:04;;;;;;;15.98;11.48;;;;;;;;;;4977614;28;20070;-72
2022/05/01 15:16:40;;;;;;;15.82;11.63;;;;;;;;;;4977766;28;20157;-72
2022/05/01 15:19:24;;;;;;;17.67;12.30;;;;;;;;;;4977494;28;20054;-73